Voss, TX (76888)

10:57 PM CDT on September 24, 2016 (GMT -0500)
RAWS | | Change Station

Elev 1452 ft 31.51 °N, 99.66 °W | Updated 50 minutes ago

Overcast
Overcast
81.0 °F
Feels Like 84 °F
N
11.0
Wind Variable Wind from SSE
Gusts 20.0 mph

Today
High -- | Low -- °F
--% Chance of Precip.
Yesterday
High -- | Low -- °F
Precip. -- in
Pressure 30.01 in
Visibility 10.0 miles
Clouds Mostly Cloudy 3300 ft
Mostly Cloudy 6000 ft
Overcast 11000 ft
Heat Index 84 °F
Dew Point 67.0 °F
Humidity 63%
Rainfall in
Snow Depth Not available.
7:28 AM 7:31 PM
Waning Crescent, 31% visible
METAR KCOM 250335Z AUTO 33016G21KT 10SM BKN033 BKN060 OVC110 23/17 A3001 RMK AO2 LTG DSNT W THRU N T02320170
Pressure 30.01 in
Visibility 10.0 miles
Clouds Mostly Cloudy 3300 ft
Mostly Cloudy 6000 ft
Overcast 11000 ft
Heat Index 84 °F
Dew Point 67.0 °F
Humidity 63%
Rainfall in
Snow Depth Not available.
7:28 AM 7:31 PM
Waning Crescent, 31% visible
METAR KCOM 250335Z AUTO 33016G21KT 10SM BKN033 BKN060 OVC110 23/17 A3001 RMK AO2 LTG DSNT W THRU N T02320170

10-Day Weather Forecast

Almanac

Astronomy

Sep. 24, 2016 Rise Set
Actual Time
Civil Twilight
Nautical Twilight
Astronomical Twilight
Moon
Length of Visible Light
Length of Day
Tomorrow will be .
, % of the Moon is Illuminated

Today's Extremes

State Highs State Lows

Community

WunderPhotos

Upload Photos

1,941,537 photos uploaded!

WunderBlog® & News

Nearby

Air Quality

  Air Quality AQ Index Pollutant
Not available.

Snow Depth

Station Depth Elevation

Earthquake Activity

City Distance Mag. Time & Date
Minimum magnitude displayed is 2.5.

Coastal Water Temperatures

Place Temperature

Stations

Nearby Weather Stations

Station Location Temp. Windchill Dew Point Humidity Wind Precip. Elev Updated Type
                   

Watches & Warnings

There are currently no watches in effect.